Terminal Aerodrome Forecast
Issued by NWS

Home | Current Version | Previous Version | Text Only | Print | Product List | Glossary On
Versions: 1 2 3 4 5 6 7 8 9 10 11 12 13 14
000
FTUS44 KMAF 291700
TAFHOB
TAF
KHOB 291734Z 2918/3018 07006KT P6SM FEW110 SCT200
     FM292100 15012G18KT P6SM SCT110 BKN200
     FM300200 16008KT P6SM SCT110 BKN200=

USA.gov is the U.S. government's official web portal to all federal, state and local government web resources and services.